Kaumakani, HI (96747)

11:02 PM HST on December 05, 2016 (GMT -1000)
Waimea, Hi 96796 | | Change Station

Elev 60 ft 21.95 °N, 159.67 °W | Updated 27 seconds ago

Overcast
Overcast
72.2 °F
Feels Like 71 °F
N
0.0
Wind Variable Wind from NE
Gusts 7.0 mph

Today
High -- | Low -- °F
--% Chance of Precip.
Yesterday
High -- | Low -- °F
Precip. -- in
Pressure 29.95 in
Visibility 10.0 miles
Clouds Overcast 5500 ft
Heat Index 71 °F
Dew Point 67 °F
Humidity 84%
Rainfall 0.02 in
Snow Depth Not available.
7:03 AM 5:55 PM
Waxing Crescent, 40% visible
METAR PHBK 060856Z AUTO 26008KT 10SM OVC055 24/21 A2994 RMK AO2 SLP141 T02440211 50001 $
Pressure 29.95 in
Visibility 10.0 miles
Clouds Overcast 5500 ft
Heat Index 71 °F
Dew Point 67 °F
Humidity 84%
Rainfall 0.02 in
Snow Depth Not available.
7:03 AM 5:55 PM
Waxing Crescent, 40% visible
METAR PHBK 060856Z AUTO 26008KT 10SM OVC055 24/21 A2994 RMK AO2 SLP141 T02440211 50001 $

10-Day Weather Forecast

Almanac

Astronomy

Dec. 05, 2016 Rise Set
Actual Time
Civil Twilight
Nautical Twilight
Astronomical Twilight
Moon
Length of Visible Light
Length of Day
Tomorrow will be .
, % of the Moon is Illuminated

Today's Extremes

State Highs State Lows

Community

WunderPhotos

Upload Photos

1,955,930 photos uploaded!

WunderBlog® & News

Nearby

Air Quality

  Air Quality AQ Index Pollutant
Not available.

Snow Depth

Station Depth Elevation

Earthquake Activity

City Distance Mag. Time & Date
Minimum magnitude displayed is 2.5.

Coastal Water Temperatures

Place Temperature

Stations

Nearby Weather Stations

Station Location Temp. Windchill Dew Point Humidity Wind Precip. Elev Updated Type
                   

Watches & Warnings

There are currently no watches in effect.